Terminal Aerodrome Forecast
Issued by NWS Omaha/Valley, NE

Home | Current Version | Previous Version | Graphics & Text | Print | Product List | Glossary On
Versions: 1 2 3 4 5 6 7 8 9 10 11 12 13 14 15 16 17 18 19 20
000
FTUS43 KOAX 272320
TAFOFK
TAF
KOFK 272320Z 2800/2824 08004KT P6SM BKN150
     FM280900 06010G18KT P6SM VCSH OVC050
     FM281200 06013KT P6SM SHRA OVC045
     FM281400 05013KT 2SM SHRASN OVC010
     FM281600 04014G23KT 3SM -SHRA OVC008
     FM282200 04012G21KT P6SM VCSH OVC010=

USA.gov is the U.S. government's official web portal to all federal, state and local government web resources and services.